TimeCST,TemperatureF,Dew PointF,Humidity,Sea Level PressureIn,VisibilityMPH,Wind Direction,Wind SpeedMPH,Gust SpeedMPH,PrecipitationIn,Events,Conditions,WindDirDegrees,DateUTC
12:14 AM,21.2,19.4,93,30.50,10.0,North,4.6,-,N/A,,Clear,350,2012-11-16 06:14:00
12:34 AM,21.2,19.4,93,30.50,10.0,North,4.6,-,N/A,,Clear,350,2012-11-16 06:34:00
12:54 AM,21.2,19.4,93,30.50,10.0,NNW,3.5,-,N/A,,Clear,340,2012-11-16 06:54:00
1:14 AM,21.2,19.4,93,30.49,10.0,Calm,Calm,-,N/A,,Clear,0,2012-11-16 07:14:00
1:34 AM,21.2,19.4,93,30.49,10.0,North,3.5,-,N/A,,Clear,360,2012-11-16 07:34:00
1:54 AM,21.2,19.4,93,30.49,10.0,Calm,Calm,-,N/A,,Clear,0,2012-11-16 07:54:00
2:14 AM,21.2,19.4,93,30.49,10.0,Calm,Calm,-,N/A,,Clear,0,2012-11-16 08:14:00
2:34 AM,21.2,19.4,93,30.49,10.0,Calm,Calm,-,N/A,,Clear,0,2012-11-16 08:34:00
2:54 AM,19.4,17.6,93,30.48,10.0,Calm,Calm,-,N/A,,Clear,0,2012-11-16 08:54:00
3:14 AM,19.4,19.4,100,30.48,10.0,Calm,Calm,-,N/A,,Clear,0,2012-11-16 09:14:00
3:34 AM,19.4,19.4,100,30.48,10.0,Calm,Calm,-,N/A,,Clear,0,2012-11-16 09:34:00
3:54 AM,19.4,17.6,93,30.47,10.0,Calm,Calm,-,N/A,,Clear,0,2012-11-16 09:54:00
4:14 AM,17.6,17.6,100,30.47,10.0,Calm,Calm,-,N/A,,Clear,0,2012-11-16 10:14:00
4:34 AM,19.4,17.6,93,30.46,10.0,South,3.5,-,N/A,,Clear,190,2012-11-16 10:34:00
4:54 AM,19.4,17.6,93,30.46,10.0,Calm,Calm,-,N/A,,Clear,0,2012-11-16 10:54:00
5:14 AM,19.4,19.4,100,30.46,10.0,Calm,Calm,-,N/A,,Clear,0,2012-11-16 11:14:00
5:34 AM,17.6,15.8,93,30.45,10.0,South,3.5,-,N/A,,Clear,180,2012-11-16 11:34:00
5:54 AM,17.6,17.6,100,30.45,10.0,South,3.5,-,N/A,,Clear,180,2012-11-16 11:54:00
6:14 AM,15.8,15.8,100,30.44,10.0,South,4.6,-,N/A,,Clear,180,2012-11-16 12:14:00
6:34 AM,19.4,17.6,93,30.44,10.0,South,3.5,-,N/A,,Clear,180,2012-11-16 12:34:00
6:54 AM,19.4,17.6,93,30.44,10.0,South,4.6,-,N/A,,Clear,190,2012-11-16 12:54:00
7:14 AM,17.6,15.8,93,30.44,10.0,South,4.6,-,N/A,,Clear,190,2012-11-16 13:14:00
7:34 AM,19.4,17.6,93,30.44,10.0,SSW,4.6,-,N/A,,Clear,200,2012-11-16 13:34:00
7:54 AM,21.2,17.6,86,30.45,10.0,SSW,4.6,-,N/A,,Clear,200,2012-11-16 13:54:00
8:14 AM,21.2,17.6,86,30.46,10.0,SSW,4.6,-,N/A,,Clear,200,2012-11-16 14:14:00
8:34 AM,21.2,19.4,93,30.46,10.0,SSW,5.8,-,N/A,,Clear,200,2012-11-16 14:34:00
8:54 AM,24.8,19.4,80,30.46,10.0,South,6.9,-,N/A,,Clear,190,2012-11-16 14:54:00
9:14 AM,24.8,19.4,80,30.45,10.0,South,9.2,-,N/A,,Clear,190,2012-11-16 15:14:00
9:34 AM,26.6,19.4,74,30.45,10.0,South,9.2,-,N/A,,Clear,190,2012-11-16 15:34:00
9:54 AM,28.4,21.2,74,30.45,10.0,SSW,8.1,-,N/A,,Clear,200,2012-11-16 15:54:00
10:14 AM,30.2,21.2,69,30.45,10.0,SSW,6.9,-,N/A,,Clear,200,2012-11-16 16:14:00
10:34 AM,32.0,21.2,64,30.45,10.0,South,6.9,-,N/A,,Clear,190,2012-11-16 16:34:00
10:54 AM,33.8,21.2,60,30.44,10.0,South,10.4,-,N/A,,Clear,190,2012-11-16 16:54:00
11:14 AM,35.6,21.2,56,30.43,10.0,South,8.1,-,N/A,,Clear,190,2012-11-16 17:14:00
11:34 AM,35.6,19.4,52,30.42,10.0,South,9.2,-,N/A,,Clear,190,2012-11-16 17:34:00
11:54 AM,37.4,19.4,48,30.41,10.0,South,6.9,-,N/A,,Clear,190,2012-11-16 17:54:00
12:14 PM,37.4,19.4,48,30.39,10.0,South,9.2,-,N/A,,Clear,190,2012-11-16 18:14:00
12:34 PM,39.2,21.2,49,30.38,10.0,SSW,9.2,-,N/A,,Clear,200,2012-11-16 18:34:00
12:54 PM,39.2,21.2,49,30.37,10.0,South,10.4,-,N/A,,Clear,190,2012-11-16 18:54:00
1:14 PM,39.2,23.0,52,30.35,10.0,South,12.7,17.3,N/A,,Clear,190,2012-11-16 19:14:00
1:34 PM,41.0,23.0,49,30.34,10.0,South,11.5,16.1,N/A,,Clear,190,2012-11-16 19:34:00
1:54 PM,42.8,21.2,42,30.33,10.0,South,12.7,16.1,N/A,,Clear,190,2012-11-16 19:54:00
2:14 PM,42.8,21.2,42,30.32,10.0,South,11.5,-,N/A,,Clear,180,2012-11-16 20:14:00
2:34 PM,42.8,21.2,42,30.31,10.0,South,11.5,17.3,N/A,,Clear,190,2012-11-16 20:34:00
2:54 PM,42.8,21.2,42,30.31,10.0,South,12.7,-,N/A,,Clear,170,2012-11-16 20:54:00
3:14 PM,42.8,21.2,42,30.29,10.0,South,12.7,17.3,N/A,,Clear,180,2012-11-16 21:14:00
3:34 PM,42.8,21.2,42,30.29,10.0,South,10.4,-,N/A,,Clear,180,2012-11-16 21:34:00
3:54 PM,42.8,21.2,42,30.28,10.0,South,12.7,19.6,N/A,,Clear,180,2012-11-16 21:54:00
4:14 PM,42.8,21.2,42,30.28,10.0,South,11.5,-,N/A,,Clear,180,2012-11-16 22:14:00
4:34 PM,39.2,24.8,56,30.27,10.0,South,9.2,-,N/A,,Clear,170,2012-11-16 22:34:00
4:54 PM,37.4,24.8,60,30.26,10.0,South,10.4,-,N/A,,Clear,170,2012-11-16 22:54:00
5:14 PM,37.4,24.8,60,30.25,10.0,South,10.4,-,N/A,,Clear,170,2012-11-16 23:14:00
5:34 PM,35.6,24.8,65,30.25,10.0,South,8.1,-,N/A,,Clear,170,2012-11-16 23:34:00
5:54 PM,35.6,26.6,70,30.25,10.0,South,10.4,-,N/A,,Clear,170,2012-11-16 23:54:00
6:12 PM,35.6,26.6,70,30.24,10.0,SSE,11.5,-,N/A,,Clear,160,2012-11-17 00:12:00
6:34 PM,32.0,26.6,80,30.24,10.0,South,9.2,-,N/A,,Clear,180,2012-11-17 00:34:00
6:54 PM,35.6,26.6,70,30.24,10.0,South,9.2,-,N/A,,Clear,180,2012-11-17 00:54:00
7:14 PM,35.6,26.6,70,30.23,10.0,South,11.5,-,N/A,,Clear,170,2012-11-17 01:14:00
7:54 PM,35.6,26.6,70,30.23,10.0,South,10.4,-,N/A,,Clear,180,2012-11-17 01:54:00
8:14 PM,35.6,26.6,70,30.23,10.0,South,9.2,-,N/A,,Clear,180,2012-11-17 02:14:00
8:34 PM,35.6,26.6,70,30.22,10.0,South,12.7,-,N/A,,Clear,170,2012-11-17 02:34:00
8:54 PM,37.4,26.6,65,30.22,10.0,South,10.4,-,N/A,,Clear,180,2012-11-17 02:54:00
9:14 PM,37.4,26.6,65,30.22,10.0,South,9.2,-,N/A,,Clear,180,2012-11-17 03:14:00
9:54 PM,35.6,28.4,75,30.21,10.0,South,11.5,-,N/A,,Clear,180,2012-11-17 03:54:00
10:14 PM,37.4,28.4,70,30.21,10.0,South,10.4,17.3,N/A,,Clear,190,2012-11-17 04:14:00
10:34 PM,35.6,28.4,75,30.21,10.0,South,10.4,-,N/A,,Clear,190,2012-11-17 04:34:00
10:54 PM,37.4,28.4,70,30.21,10.0,SSW,10.4,-,N/A,,Clear,200,2012-11-17 04:54:00
11:14 PM,37.4,28.4,70,30.20,10.0,South,11.5,19.6,N/A,,Clear,190,2012-11-17 05:14:00
11:34 PM,37.4,28.4,70,30.19,10.0,SSW,12.7,17.3,N/A,,Clear,200,2012-11-17 05:34:00
11:54 PM,37.4,30.2,75,30.19,10.0,SSW,10.4,-,N/A,,Clear,200,2012-11-17 05:54:00